createdAt,value
2022-09-26T00:00:14.416Z,100763.09
2022-09-26T00:02:40.786Z,100750.50
2022-09-26T00:05:07.924Z,100747.50
2022-09-26T00:07:35.543Z,100737.56
2022-09-26T00:10:01.803Z,100737.25
2022-09-26T00:12:28.100Z,100719.63
2022-09-26T00:14:54.338Z,100719.63
2022-09-26T00:17:20.612Z,100712.66
2022-09-26T00:19:46.867Z,100710.00
2022-09-26T00:22:13.134Z,100712.81
2022-09-26T00:24:40.742Z,100702.34
2022-09-26T00:27:06.996Z,100705.00
2022-09-26T00:29:33.263Z,100700.84
2022-09-26T00:31:59.569Z,100695.84
2022-09-26T00:34:25.811Z,100692.50
2022-09-26T00:36:52.109Z,100689.03
2022-09-26T00:39:18.375Z,100685.22
2022-09-26T00:41:45.996Z,100687.03
2022-09-26T00:44:39.161Z,100684.91
2022-09-26T00:47:07.315Z,100674.75
2022-09-26T00:49:35.798Z,100674.59
2022-09-26T00:52:04.672Z,100669.97
2022-09-26T00:54:31.574Z,100661.16
2022-09-26T00:57:02.263Z,100657.50
2022-09-26T00:59:30.836Z,100658.19
2022-09-26T01:01:58.739Z,100647.41
2022-09-26T01:04:25.563Z,100645.38
2022-09-26T01:06:51.973Z,100648.72
2022-09-26T01:09:18.245Z,100639.75
2022-09-26T01:11:44.531Z,100632.63
2022-09-26T01:14:12.764Z,100627.31
2022-09-26T01:16:39.879Z,100631.31
2022-09-26T01:19:12.138Z,100624.16
2022-09-26T01:22:00.730Z,100621.31
2022-09-26T01:24:36.069Z,100619.31
2022-09-26T01:27:13.924Z,100613.84
2022-09-26T01:30:00.855Z,100614.69
2022-09-26T01:32:33.598Z,100604.72
2022-09-26T01:35:03.596Z,100606.38
2022-09-26T01:37:34.131Z,100600.06
2022-09-26T01:40:05.872Z,100597.41
2022-09-26T01:42:36.028Z,100592.78
2022-09-26T01:45:07.155Z,100594.41
2022-09-26T01:47:40.239Z,100584.44
2022-09-26T01:50:12.284Z,100580.94
2022-09-26T01:52:40.837Z,100569.31
2022-09-26T01:55:09.956Z,100568.66
2022-09-26T01:57:39.938Z,100564.16
2022-09-26T02:00:07.825Z,100555.19
2022-09-26T02:02:38.153Z,100553.38
2022-09-26T02:05:06.954Z,100546.22
2022-09-26T02:07:36.790Z,100533.94
2022-09-26T02:10:05.215Z,100530.28
2022-09-26T02:12:32.843Z,100524.63
2022-09-26T02:15:00.718Z,100521.13
2022-09-26T02:17:30.009Z,100515.00
2022-09-26T02:19:58.851Z,100496.72
2022-09-26T02:22:27.075Z,100501.03
2022-09-26T02:24:53.833Z,100502.03
2022-09-26T02:27:20.207Z,100489.72
2022-09-26T02:29:46.591Z,100486.44
2022-09-26T02:32:15.235Z,100481.13
2022-09-26T02:34:42.760Z,100485.59
2022-09-26T02:37:11.200Z,100474.47
2022-09-26T02:39:37.628Z,100470.31
2022-09-26T02:42:09.011Z,100467.81
2022-09-26T02:44:43.138Z,100457.19
2022-09-26T02:47:24.993Z,100451.03
2022-09-26T02:50:09.003Z,100446.06
2022-09-26T02:52:44.768Z,100446.25
2022-09-26T02:55:15.362Z,100446.41
2022-09-26T02:57:46.435Z,100442.59
2022-09-26T03:00:16.158Z,100433.44
2022-09-26T03:02:46.138Z,100430.59
2022-09-26T03:05:15.167Z,100421.78
2022-09-26T03:07:45.138Z,100420.34
2022-09-26T03:10:12.254Z,100413.53
2022-09-26T03:12:39.512Z,100412.84
2022-09-26T03:15:07.316Z,100422.66
2022-09-26T03:17:36.121Z,100416.50
2022-09-26T03:20:05.460Z,100409.19
2022-09-26T03:22:31.851Z,100409.19
2022-09-26T03:24:59.842Z,100404.06
2022-09-26T03:27:26.198Z,100412.03
2022-09-26T03:29:52.537Z,100403.38
2022-09-26T03:32:18.803Z,100401.56
2022-09-26T03:34:45.099Z,100399.72
2022-09-26T03:37:11.435Z,100395.25
2022-09-26T03:39:37.715Z,100393.75
2022-09-26T03:42:05.488Z,100385.78
2022-09-26T03:44:31.766Z,100383.63
2022-09-26T03:46:58.047Z,100373.81
2022-09-26T03:49:24.387Z,100372.16
2022-09-26T03:51:50.647Z,100372.31
2022-09-26T03:54:16.930Z,100363.53
2022-09-26T03:56:43.194Z,100361.69
2022-09-26T03:59:10.919Z,100345.06
2022-09-26T04:01:37.334Z,100347.75
2022-09-26T04:04:03.650Z,100330.13
2022-09-26T04:06:29.970Z,100328.97
2022-09-26T04:08:56.262Z,100319.50
2022-09-26T04:11:23.490Z,100321.31
2022-09-26T04:13:52.441Z,100317.69
2022-09-26T04:16:21.575Z,100309.06
2022-09-26T04:18:47.943Z,100309.69
2022-09-26T04:21:14.431Z,100301.72
2022-09-26T04:23:41.294Z,100309.03
2022-09-26T04:26:08.798Z,100294.59
2022-09-26T04:28:35.071Z,100289.44
2022-09-26T04:31:02.038Z,100284.78
2022-09-26T04:33:29.975Z,100275.81
2022-09-26T04:35:59.071Z,100278.00
2022-09-26T04:38:25.366Z,100264.72
2022-09-26T04:40:51.692Z,100260.22
2022-09-26T04:43:18.000Z,100254.25
2022-09-26T04:45:44.343Z,100245.63
2022-09-26T04:48:10.614Z,100243.81
2022-09-26T04:50:38.219Z,100245.47
2022-09-26T04:53:04.509Z,100247.47
2022-09-26T04:55:30.799Z,100233.34
2022-09-26T04:57:57.070Z,100234.84
2022-09-26T05:00:23.322Z,100242.81
2022-09-26T05:02:49.591Z,100230.84
2022-09-26T05:05:15.971Z,100221.88
2022-09-26T05:07:43.647Z,100215.75
2022-09-26T05:10:10.506Z,100209.78
2022-09-26T05:12:36.938Z,100202.63
2022-09-26T05:15:03.415Z,100195.47
2022-09-26T05:17:29.704Z,100188.84
2022-09-26T05:19:55.994Z,100177.53
2022-09-26T05:22:22.266Z,100173.72
2022-09-26T05:24:49.882Z,100172.88
2022-09-26T05:27:16.147Z,100169.22
2022-09-26T05:29:42.406Z,100171.22
2022-09-26T05:32:08.688Z,100169.84
2022-09-26T05:34:34.955Z,100166.56
2022-09-26T05:37:01.279Z,100168.22
2022-09-26T05:39:27.556Z,100169.22
2022-09-26T05:41:55.162Z,100156.94
2022-09-26T05:44:21.438Z,100151.09
2022-09-26T05:46:47.781Z,100149.44
2022-09-26T05:49:14.177Z,100141.28
2022-09-26T05:51:40.499Z,100136.63
2022-09-26T05:54:06.938Z,100138.63
2022-09-26T05:56:33.327Z,100130.50
2022-09-26T05:59:00.959Z,100134.31
2022-09-26T06:01:27.372Z,100127.19
2022-09-26T06:03:53.690Z,100112.06
2022-09-26T06:06:20.482Z,100098.78
2022-09-26T06:08:46.958Z,100120.19
2022-09-26T06:11:14.644Z,100122.84
2022-09-26T06:13:41.575Z,100118.19
2022-09-26T06:16:12.025Z,100108.75
2022-09-26T06:18:38.637Z,100100.09
2022-09-26T06:21:06.080Z,100105.41
2022-09-26T06:23:32.770Z,100102.22
2022-09-26T06:25:59.032Z,100099.75
2022-09-26T06:28:25.352Z,100096.25
2022-09-26T06:30:51.839Z,100099.34
2022-09-26T06:33:19.677Z,100095.25
2022-09-26T06:35:46.016Z,100082.78
2022-09-26T06:38:12.319Z,100071.59
2022-09-26T06:40:38.651Z,100069.13
2022-09-26T06:43:04.986Z,100068.13
2022-09-26T06:45:31.259Z,100060.50
2022-09-26T06:48:00.181Z,100055.84
2022-09-26T06:50:27.791Z,100050.34
2022-09-26T06:52:54.071Z,100043.50
2022-09-26T06:55:20.324Z,100039.53
2022-09-26T06:57:46.605Z,100021.75
2022-09-26T07:00:14.107Z,100018.03
2022-09-26T07:02:48.745Z,100017.53
2022-09-26T07:05:15.014Z,100010.41
2022-09-26T07:07:42.796Z,99994.66
2022-09-26T07:10:09.225Z,99988.97
2022-09-26T07:12:35.489Z,99988.13
2022-09-26T07:15:01.769Z,99989.91
2022-09-26T07:17:28.063Z,99982.38
2022-09-26T07:19:54.407Z,99977.53
2022-09-26T07:22:20.777Z,99973.94
2022-09-26T07:24:48.391Z,99971.59
2022-09-26T07:27:14.823Z,99974.97
2022-09-26T07:29:41.148Z,99973.31
2022-09-26T07:32:07.414Z,99971.66
2022-09-26T07:34:33.679Z,99972.59
2022-09-26T07:36:59.952Z,99971.84
2022-09-26T07:39:26.208Z,99975.44
2022-09-26T07:41:53.818Z,99966.28
2022-09-26T07:45:09.288Z,99961.97
2022-09-26T07:47:06.402Z,99956.66
2022-09-26T07:49:32.780Z,99957.00
2022-09-26T07:51:59.047Z,99959.75
2022-09-26T07:54:25.302Z,99957.19
2022-09-26T07:56:51.588Z,99951.31
2022-09-26T07:59:19.181Z,99952.16
2022-09-26T08:01:45.513Z,99944.59
2022-09-26T08:04:12.058Z,99939.56
2022-09-26T08:06:38.347Z,99924.72
2022-09-26T08:09:04.635Z,99932.06
2022-09-26T08:11:30.925Z,99915.72
2022-09-26T08:13:57.207Z,99924.72
2022-09-26T08:16:24.919Z,99917.66
2022-09-26T08:18:51.913Z,99920.94
2022-09-26T08:21:18.592Z,99926.91
2022-09-26T08:23:45.206Z,99924.19
2022-09-26T08:26:11.499Z,99925.66
2022-09-26T08:28:37.988Z,99918.50
2022-09-26T08:31:04.718Z,99912.94
2022-09-26T08:33:33.370Z,99919.38
2022-09-26T08:36:02.449Z,99910.84
2022-09-26T08:38:28.710Z,99908.19
2022-09-26T08:41:00.312Z,99907.38
2022-09-26T08:43:33.629Z,99905.22
2022-09-26T08:46:02.853Z,99897.28
2022-09-26T08:48:48.048Z,99900.78
2022-09-26T08:51:24.298Z,99899.59
2022-09-26T08:53:55.599Z,99887.47
2022-09-26T08:56:27.812Z,99893.06
2022-09-26T08:58:55.020Z,99890.66
2022-09-26T09:01:24.450Z,99893.50
2022-09-26T09:03:55.740Z,99889.94
2022-09-26T09:06:22.134Z,99884.69
2022-09-26T09:08:49.670Z,99885.31
2022-09-26T09:11:22.067Z,99877.34
2022-09-26T09:13:57.357Z,99876.38
2022-09-26T09:16:32.407Z,99861.31
2022-09-26T09:19:03.363Z,99862.13
2022-09-26T09:21:39.319Z,99863.19
2022-09-26T09:24:13.917Z,99864.84
2022-09-26T09:29:49.323Z,99853.84
2022-09-26T09:32:18.761Z,99858.53
2022-09-26T09:34:50.251Z,99849.41
2022-09-26T09:37:21.317Z,99847.59
2022-09-26T09:39:49.058Z,99859.47
2022-09-26T09:42:19.062Z,99848.66
2022-09-26T09:44:47.342Z,99836.16
2022-09-26T09:47:14.673Z,99841.94
2022-09-26T09:49:41.093Z,99834.41
2022-09-26T09:52:17.544Z,99820.06
2022-09-26T09:54:48.456Z,99824.13
2022-09-26T09:57:29.607Z,99819.41
2022-09-26T10:00:02.934Z,99811.25
2022-09-26T10:02:31.794Z,99806.72
2022-09-26T10:05:04.742Z,99806.72
2022-09-26T10:07:32.333Z,99792.59
2022-09-26T10:09:58.589Z,99790.75
2022-09-26T10:12:26.104Z,99776.81
2022-09-26T10:14:54.842Z,99775.59
2022-09-26T10:17:21.947Z,99765.56
2022-09-26T10:19:48.474Z,99759.03
2022-09-26T10:22:17.316Z,99762.34
2022-09-26T10:24:46.191Z,99757.66
2022-09-26T10:27:13.935Z,99753.00
2022-09-26T10:29:40.403Z,99753.25
2022-09-26T10:32:06.875Z,99745.88
2022-09-26T10:34:33.762Z,99734.38
2022-09-26T10:37:17.762Z,99743.03
2022-09-26T10:39:51.349Z,99735.59
2022-09-26T10:42:18.858Z,99736.38
2022-09-26T10:44:45.478Z,99725.72
2022-09-26T10:47:14.274Z,99720.78
2022-09-26T10:49:43.748Z,99720.56
2022-09-26T10:52:17.530Z,99715.59
2022-09-26T10:54:48.089Z,99715.38
2022-09-26T10:57:19.573Z,99726.63
2022-09-26T10:59:47.071Z,99712.28
2022-09-26T11:02:16.347Z,99705.94
2022-09-26T11:04:45.255Z,99702.22
2022-09-26T11:07:20.003Z,99701.00
2022-09-26T11:09:47.663Z,99710.84
2022-09-26T11:12:20.365Z,99696.47
2022-09-26T11:14:46.648Z,99704.91
2022-09-26T11:17:14.777Z,99695.31
2022-09-26T11:19:44.367Z,99696.34
2022-09-26T11:22:17.596Z,99688.53
2022-09-26T11:24:47.139Z,99686.69
2022-09-26T11:27:19.635Z,99689.75
2022-09-26T11:29:47.596Z,99687.47
2022-09-26T11:32:16.025Z,99683.16
2022-09-26T11:34:42.423Z,99680.91
2022-09-26T11:37:26.343Z,99684.59
2022-09-26T11:40:07.326Z,99673.06
2022-09-26T11:42:45.262Z,99667.13
2022-09-26T11:45:15.845Z,99668.97
2022-09-26T11:48:00.121Z,99664.22
2022-09-26T11:50:36.118Z,99659.53
2022-09-26T11:53:11.209Z,99659.91
2022-09-26T11:55:44.142Z,99654.78
2022-09-26T11:58:19.460Z,99651.53
2022-09-26T12:00:51.352Z,99641.91
2022-09-26T12:03:28.712Z,99634.53
2022-09-26T12:05:58.673Z,99646.22
2022-09-26T12:08:29.399Z,99633.50
2022-09-26T12:11:04.307Z,99630.22
2022-09-26T12:13:36.743Z,99633.91
2022-09-26T12:16:06.520Z,99626.09
2022-09-26T12:18:35.503Z,99617.09
2022-09-26T12:21:08.096Z,99609.66
2022-09-26T12:23:37.118Z,99613.75
2022-09-26T12:26:08.263Z,99604.53
2022-09-26T12:28:43.344Z,99606.81
2022-09-26T12:31:15.992Z,99605.53
2022-09-26T12:33:53.890Z,99596.94
2022-09-26T12:36:25.526Z,99601.81
2022-09-26T12:38:59.830Z,99593.25
2022-09-26T12:41:36.038Z,99590.97
2022-09-26T12:44:15.756Z,99585.69
2022-09-26T12:46:52.333Z,99591.59
2022-09-26T12:49:30.478Z,99588.50
2022-09-26T12:52:03.291Z,99593.22
2022-09-26T12:54:35.482Z,99586.84
2022-09-26T12:57:05.080Z,99585.44
2022-09-26T12:59:41.106Z,99570.72
2022-09-26T13:02:22.582Z,99575.41
2022-09-26T13:05:16.355Z,99572.13
2022-09-26T13:07:49.823Z,99574.59
2022-09-26T13:10:24.558Z,99572.94
2022-09-26T13:13:01.739Z,99568.00
2022-09-26T13:15:32.189Z,99571.28
2022-09-26T13:18:01.801Z,99567.19
2022-09-26T13:20:31.486Z,99552.66
2022-09-26T13:22:58.682Z,99554.88
2022-09-26T13:25:29.511Z,99563.31
2022-09-26T13:27:58.542Z,99556.53
2022-09-26T13:30:25.855Z,99538.09
2022-09-26T13:32:57.024Z,99542.81
2022-09-26T13:35:24.472Z,99546.31
2022-09-26T13:38:00.247Z,99533.81
2022-09-26T13:40:34.349Z,99538.31
2022-09-26T13:43:07.013Z,99541.38
2022-09-26T13:45:42.114Z,99540.97
2022-09-26T13:48:12.808Z,99537.88
2022-09-26T13:50:42.883Z,99544.66
2022-09-26T13:53:13.399Z,99543.84
2022-09-26T13:55:39.651Z,99536.03
2022-09-26T13:58:06.620Z,99533.56
2022-09-26T14:00:40.365Z,99531.97
2022-09-26T14:03:25.526Z,99531.34
2022-09-26T14:06:06.378Z,99529.88
2022-09-26T14:08:33.770Z,99529.06
2022-09-26T14:11:05.456Z,99521.91
2022-09-26T14:13:33.363Z,99511.06
2022-09-26T14:16:03.973Z,99511.06
2022-09-26T14:18:37.847Z,99504.91
2022-09-26T14:21:11.567Z,99502.88
2022-09-26T14:23:39.753Z,99508.63
2022-09-26T14:26:10.323Z,99506.53
2022-09-26T14:28:37.325Z,99497.94
2022-09-26T14:31:11.395Z,99502.25
2022-09-26T14:33:37.831Z,99493.44
2022-09-26T14:36:23.338Z,99490.34
2022-09-26T14:38:50.104Z,99484.81
2022-09-26T14:41:17.885Z,99482.78
2022-09-26T14:43:44.242Z,99485.22
2022-09-26T14:46:15.499Z,99476.81
2022-09-26T14:48:42.618Z,99473.56
2022-09-26T14:51:23.812Z,99473.75
2022-09-26T14:53:53.812Z,99467.00
2022-09-26T14:56:30.353Z,99463.53
2022-09-26T14:59:14.352Z,99458.59
2022-09-26T15:01:41.375Z,99458.59
2022-09-26T15:04:12.651Z,99454.09
2022-09-26T15:06:42.339Z,99455.31
2022-09-26T15:09:09.211Z,99446.31
2022-09-26T15:11:40.027Z,99450.00
2022-09-26T15:14:12.554Z,99443.84
2022-09-26T15:16:41.780Z,99438.13
2022-09-26T15:19:12.217Z,99436.47
2022-09-26T15:21:42.120Z,99436.06
2022-09-26T15:24:22.178Z,99436.06
2022-09-26T15:26:49.231Z,99431.56
2022-09-26T15:29:15.902Z,99427.44
2022-09-26T15:31:43.087Z,99431.34
2022-09-26T15:34:11.083Z,99421.06
2022-09-26T15:36:38.508Z,99426.22
2022-09-26T15:39:25.646Z,99419.03
2022-09-26T15:41:51.919Z,99409.81
2022-09-26T15:44:19.047Z,99415.50
2022-09-26T15:46:47.001Z,99399.53
2022-09-26T15:49:13.307Z,99412.63
2022-09-26T15:51:40.107Z,99402.00
2022-09-26T15:54:12.143Z,99407.72
2022-09-26T15:56:40.520Z,99397.25
2022-09-26T15:59:09.567Z,99396.84
2022-09-26T16:01:39.521Z,99399.09
2022-09-26T16:04:14.557Z,99392.13
2022-09-26T16:06:42.134Z,99396.00
2022-09-26T16:09:16.788Z,99388.63
2022-09-26T16:11:44.074Z,99390.50
2022-09-26T16:14:20.736Z,99385.34
2022-09-26T16:16:47.020Z,99383.91
2022-09-26T16:19:27.982Z,99383.47
2022-09-26T16:21:55.443Z,99377.16
2022-09-26T16:24:28.165Z,99385.16
2022-09-26T16:26:54.770Z,99385.53
2022-09-26T16:29:28.853Z,99375.72
2022-09-26T16:31:55.142Z,99374.50
2022-09-26T16:34:22.599Z,99371.66
2022-09-26T16:36:49.711Z,99378.19
2022-09-26T16:39:19.711Z,99362.22
2022-09-26T16:42:08.019Z,99356.91
2022-09-26T16:44:37.296Z,99370.00
2022-09-26T16:47:04.935Z,99363.63
2022-09-26T16:49:32.618Z,99373.25
2022-09-26T16:52:10.143Z,99370.97
2022-09-26T16:54:36.419Z,99366.09
2022-09-26T16:57:04.943Z,99375.47
2022-09-26T16:59:31.287Z,99369.56
2022-09-26T17:02:00.444Z,99368.75
2022-09-26T17:04:27.618Z,99368.13
2022-09-26T17:06:53.882Z,99368.94
2022-09-26T17:09:20.886Z,99366.28
2022-09-26T17:11:48.184Z,99378.75
2022-09-26T17:14:16.808Z,99369.13
2022-09-26T17:16:43.902Z,99375.28
2022-09-26T17:19:11.432Z,99372.00
2022-09-26T17:21:37.702Z,99379.97
2022-09-26T17:24:04.215Z,99368.31
2022-09-26T17:26:30.509Z,99367.09
2022-09-26T17:28:56.798Z,99371.53
2022-09-26T17:31:24.677Z,99367.84
2022-09-26T17:33:52.994Z,99370.59
2022-09-26T17:36:20.963Z,99366.84
2022-09-26T17:38:47.358Z,99363.34
2022-09-26T17:41:13.671Z,99362.94
2022-09-26T17:43:39.942Z,99362.94
2022-09-26T17:46:06.437Z,99354.16
2022-09-26T17:48:34.184Z,99364.97
2022-09-26T17:51:01.538Z,99366.44
2022-09-26T17:53:32.704Z,99363.16
2022-09-26T17:55:59.157Z,99362.94
2022-09-26T17:58:25.491Z,99363.16
2022-09-26T18:00:51.853Z,99362.94
2022-09-26T18:03:21.280Z,99355.16
2022-09-26T18:05:48.976Z,99349.22
2022-09-26T18:08:18.143Z,99356.19
2022-09-26T18:10:47.297Z,99359.22
2022-09-26T18:13:15.850Z,99351.66
2022-09-26T18:15:42.167Z,99344.69
2022-09-26T18:18:11.792Z,99340.19
2022-09-26T18:20:38.600Z,99347.97
2022-09-26T18:23:07.468Z,99341.63
2022-09-26T18:25:34.279Z,99350.81
2022-09-26T18:28:03.703Z,99342.03
2022-09-26T18:30:30.224Z,99348.16
2022-09-26T18:32:56.917Z,99347.56
2022-09-26T18:35:23.952Z,99349.59
2022-09-26T18:37:50.252Z,99347.13
2022-09-26T18:40:18.069Z,99339.53
2022-09-26T18:42:44.580Z,99348.53
2022-09-26T18:45:13.020Z,99348.72
2022-09-26T18:47:40.122Z,99350.78
2022-09-26T18:50:07.111Z,99357.31
2022-09-26T18:52:33.384Z,99342.56
2022-09-26T18:54:59.931Z,99352.38
2022-09-26T18:57:27.548Z,99357.91
2022-09-26T18:59:53.822Z,99354.59
2022-09-26T19:02:21.250Z,99353.00
2022-09-26T19:04:47.881Z,99349.09
2022-09-26T19:07:20.845Z,99357.69
2022-09-26T19:09:47.739Z,99358.69
2022-09-26T19:12:14.890Z,99353.56
2022-09-26T19:14:43.020Z,99355.78
2022-09-26T19:17:09.302Z,99353.34
2022-09-26T19:19:35.582Z,99351.50
2022-09-26T19:22:03.568Z,99351.50
2022-09-26T19:24:31.537Z,99355.16
2022-09-26T19:26:59.066Z,99360.28
2022-09-26T19:29:28.152Z,99352.13
2022-09-26T19:31:55.856Z,99353.78
2022-09-26T19:34:22.363Z,99361.56
2022-09-26T19:36:49.550Z,99358.50
2022-09-26T19:39:15.892Z,99363.63
2022-09-26T19:41:42.354Z,99368.53
2022-09-26T19:44:08.699Z,99363.22
2022-09-26T19:46:35.819Z,99371.44
2022-09-26T19:49:04.347Z,99370.81
2022-09-26T19:51:31.720Z,99365.06
2022-09-26T19:53:59.734Z,99366.13
2022-09-26T19:56:28.976Z,99366.50
2022-09-26T19:58:56.534Z,99364.84
2022-09-26T20:01:22.991Z,99366.06
2022-09-26T20:03:49.951Z,99366.28
2022-09-26T20:06:19.331Z,99361.56
2022-09-26T20:08:45.594Z,99371.00
2022-09-26T20:11:11.886Z,99362.81
2022-09-26T20:13:38.213Z,99359.72
2022-09-26T20:16:04.659Z,99362.19
2022-09-26T20:18:30.947Z,99360.34
2022-09-26T20:20:58.341Z,99366.28
2022-09-26T20:23:26.646Z,99362.00
2022-09-26T20:25:54.351Z,99366.03
2022-09-26T20:28:20.640Z,99360.91
2022-09-26T20:30:46.969Z,99360.09
2022-09-26T20:33:13.590Z,99366.25
2022-09-26T20:35:41.191Z,99368.06
2022-09-26T20:38:11.250Z,99368.06
2022-09-26T20:40:39.187Z,99374.41
2022-09-26T20:43:06.963Z,99367.66
2022-09-26T20:45:35.629Z,99371.94
2022-09-26T20:48:02.304Z,99372.56
2022-09-26T20:50:33.850Z,99363.97
2022-09-26T20:53:00.726Z,99377.06
2022-09-26T20:55:26.995Z,99371.34
2022-09-26T20:57:54.606Z,99359.47
2022-09-26T21:00:20.893Z,99368.47
2022-09-26T21:02:49.738Z,99367.03
2022-09-26T21:05:17.475Z,99371.88
2022-09-26T21:07:44.082Z,99372.19
2022-09-26T21:10:20.318Z,99374.75
2022-09-26T21:12:46.582Z,99380.44
2022-09-26T21:15:14.466Z,99377.13
2022-09-26T21:17:41.534Z,99374.25
2022-09-26T21:20:13.342Z,99377.28
2022-09-26T21:22:39.631Z,99389.13
2022-09-26T21:25:06.823Z,99393.22
2022-09-26T21:27:33.140Z,99387.84
2022-09-26T21:29:59.404Z,99388.22
2022-09-26T21:32:27.060Z,99388.22
2022-09-26T21:34:55.775Z,99383.91
2022-09-26T21:37:22.084Z,99396.34
2022-09-26T21:39:48.349Z,99386.59
2022-09-26T21:42:14.696Z,99387.78
2022-09-26T21:44:42.815Z,99387.19
2022-09-26T21:47:09.491Z,99395.53
2022-09-26T21:49:37.108Z,99392.72
2022-09-26T21:52:06.166Z,99389.53
2022-09-26T21:54:34.707Z,99394.34
2022-09-26T21:57:03.585Z,99400.84
2022-09-26T21:59:30.114Z,99399.59
2022-09-26T22:01:56.464Z,99407.19
2022-09-26T22:04:22.821Z,99408.59
2022-09-26T22:06:50.459Z,99413.47
2022-09-26T22:09:16.805Z,99410.38
2022-09-26T22:11:43.186Z,99412.44
2022-09-26T22:14:09.501Z,99413.59
2022-09-26T22:16:35.802Z,99409.31
2022-09-26T22:19:02.162Z,99417.09
2022-09-26T22:21:28.419Z,99410.53
2022-09-26T22:23:56.195Z,99408.22
2022-09-26T22:26:22.502Z,99414.47
2022-09-26T22:28:48.779Z,99410.09
2022-09-26T22:31:15.475Z,99413.03
2022-09-26T22:33:41.833Z,99413.53
2022-09-26T22:36:08.325Z,99408.34
2022-09-26T22:38:35.365Z,99409.09
2022-09-26T22:41:04.268Z,99401.91
2022-09-26T22:43:31.194Z,99393.97
2022-09-26T22:46:00.562Z,99399.34
2022-09-26T22:48:29.156Z,99399.91
2022-09-26T22:50:55.407Z,99404.59
2022-09-26T22:53:21.672Z,99401.53
2022-09-26T22:55:51.086Z,99396.91
2022-09-26T22:58:18.698Z,99401.81
2022-09-26T23:00:44.965Z,99403.56
2022-09-26T23:03:11.217Z,99411.78
2022-09-26T23:05:39.308Z,99405.28
2022-09-26T23:08:05.618Z,99404.31
2022-09-26T23:10:31.891Z,99415.31
2022-09-26T23:12:58.163Z,99412.16
2022-09-26T23:15:25.855Z,99409.69
2022-09-26T23:17:52.124Z,99410.03
2022-09-26T23:20:18.386Z,99414.53
2022-09-26T23:22:44.655Z,99412.34
2022-09-26T23:25:10.941Z,99401.25
2022-09-26T23:27:37.323Z,99412.47
2022-09-26T23:30:03.842Z,99408.50
2022-09-26T23:32:31.460Z,99408.81
2022-09-26T23:34:57.706Z,99414.53
2022-09-26T23:37:23.968Z,99410.88
2022-09-26T23:39:50.230Z,99415.34
2022-09-26T23:42:16.499Z,99408.41
2022-09-26T23:44:42.776Z,99405.19
2022-09-26T23:47:09.035Z,99408.00
2022-09-26T23:49:36.655Z,99411.47
2022-09-26T23:52:02.915Z,99416.63
2022-09-26T23:54:29.206Z,99414.63
2022-09-26T23:56:55.466Z,99422.31
2022-09-26T23:59:21.710Z,99417.38
